Time;durP1;ratioP1;P1;durP2;ratioP2;P2;SDS_P1;SDS_P2;PMS_P1;PMS_P2;Temp;Humidity;BMP_temperature;BMP_pressure;BME280_temperature;BME280_humidity;BME280_pressure;Samples;Min_cycle;Max_cycle;Signal;HPM_P1;HPM_P2
2022/11/19 00:01:23;;;;;;;20.25;10.25;;;;;;;;;;5035087;28;20386;-77
2022/11/19 00:03:49;;;;;;;24.98;11.20;;;;;;;;;;5034170;28;20029;-77
2022/11/19 00:06:19;;;;;;;20.55;10.63;;;;;;;;;;5034371;28;20124;-77
2022/11/19 00:08:45;;;;;;;20.85;10.32;;;;;;;;;;5034172;28;20033;-77
2022/11/19 00:11:13;;;;;;;20.95;11.07;;;;;;;;;;5034746;28;20037;-75
2022/11/19 00:13:39;;;;;;;27.27;11.30;;;;;;;;;;5034398;28;20091;-78
2022/11/19 00:16:07;;;;;;;25.98;11.07;;;;;;;;;;5034008;28;20041;-77
2022/11/19 00:18:33;;;;;;;20.25;11.35;;;;;;;;;;5034395;28;20136;-77
2022/11/19 00:21:17;;;;;;;22.20;11.38;;;;;;;;;;5034377;28;20018;-77
2022/11/19 00:23:43;;;;;;;25.23;11.50;;;;;;;;;;5036254;28;20044;-77
2022/11/19 00:26:10;;;;;;;23.83;12.52;;;;;;;;;;5032369;28;20483;-77
2022/11/19 00:28:37;;;;;;;19.42;10.50;;;;;;;;;;5033570;28;20029;-77
2022/11/19 00:31:09;;;;;;;22.90;11.70;;;;;;;;;;5034107;28;20029;-76
2022/11/19 00:33:36;;;;;;;23.42;11.25;;;;;;;;;;5033840;28;20043;-77
2022/11/19 00:36:03;;;;;;;20.27;10.55;;;;;;;;;;5034933;28;20025;-77
2022/11/19 00:38:30;;;;;;;22.05;10.68;;;;;;;;;;5039875;28;20057;-75
2022/11/19 00:40:56;;;;;;;21.25;10.52;;;;;;;;;;5045082;28;20033;-76
2022/11/19 00:46:07;;;;;;;20.95;9.20;;;;;;;;;;5051223;28;20076;-76
2022/11/19 00:48:33;;;;;;;19.63;9.80;;;;;;;;;;5053198;28;20026;-76
2022/11/19 00:50:59;;;;;;;18.92;10.10;;;;;;;;;;5047118;28;20036;-76
2022/11/19 00:53:25;;;;;;;17.70;9.38;;;;;;;;;;5045720;28;20032;-76
2022/11/19 00:55:51;;;;;;;17.77;9.65;;;;;;;;;;5033687;28;20029;-78
2022/11/19 00:58:18;;;;;;;23.17;10.63;;;;;;;;;;5033463;28;20014;-77
2022/11/19 01:00:44;;;;;;;19.88;10.18;;;;;;;;;;5033553;28;20057;-77
2022/11/19 01:03:10;;;;;;;20.15;10.43;;;;;;;;;;5034690;28;20466;-76
2022/11/19 01:05:36;;;;;;;21.10;10.32;;;;;;;;;;5034370;28;20021;-76
2022/11/19 01:08:02;;;;;;;21.33;9.85;;;;;;;;;;5032331;28;20037;-76
2022/11/19 01:10:28;;;;;;;20.58;10.05;;;;;;;;;;5033108;28;20033;-77
2022/11/19 01:15:38;;;;;;;21.75;9.90;;;;;;;;;;5033941;28;20036;-76
2022/11/19 01:18:04;;;;;;;20.05;10.32;;;;;;;;;;5034193;28;20034;-76
2022/11/19 01:20:30;;;;;;;20.52;10.82;;;;;;;;;;5034515;28;20033;-76
2022/11/19 01:22:56;;;;;;;23.63;10.10;;;;;;;;;;5032336;28;20069;-77
2022/11/19 01:25:22;;;;;;;21.08;10.18;;;;;;;;;;5034666;28;20025;-77
2022/11/19 01:27:48;;;;;;;22.05;10.15;;;;;;;;;;5033034;28;20079;-77
2022/11/19 01:30:14;;;;;;;20.55;10.27;;;;;;;;;;5033834;28;20083;-76
2022/11/19 01:32:40;;;;;;;19.60;9.98;;;;;;;;;;5034343;28;20536;-77
2022/11/19 01:35:06;;;;;;;20.02;10.40;;;;;;;;;;5034937;28;20117;-75
2022/11/19 01:37:32;;;;;;;20.60;10.43;;;;;;;;;;5039947;28;20021;-76
2022/11/19 01:39:58;;;;;;;16.73;9.63;;;;;;;;;;5040354;28;20041;-76
2022/11/19 01:45:22;;;;;;;19.23;9.75;;;;;;;;;;5036400;28;20037;-77
2022/11/19 01:47:48;;;;;;;18.10;10.05;;;;;;;;;;5034242;28;20033;-76
2022/11/19 01:50:14;;;;;;;20.75;10.13;;;;;;;;;;5039200;28;20053;-77
2022/11/19 01:52:40;;;;;;;19.83;10.45;;;;;;;;;;5043982;28;20029;-75
2022/11/19 01:55:07;;;;;;;21.10;10.15;;;;;;;;;;5041363;28;20025;-76
2022/11/19 01:57:34;;;;;;;18.38;9.35;;;;;;;;;;5041856;28;20029;-76
2022/11/19 02:00:00;;;;;;;20.83;9.82;;;;;;;;;;5039771;28;20025;-76
2022/11/19 02:02:26;;;;;;;21.20;9.95;;;;;;;;;;5039101;28;20228;-76
2022/11/19 02:04:52;;;;;;;20.80;10.30;;;;;;;;;;5037371;28;20455;-75
2022/11/19 02:07:21;;;;;;;17.17;9.25;;;;;;;;;;5037293;28;20395;-77
2022/11/19 02:09:47;;;;;;;21.60;10.50;;;;;;;;;;5037304;28;20033;-77
2022/11/19 02:12:34;;;;;;;20.10;10.75;;;;;;;;;;5036529;28;20049;-77
2022/11/19 02:15:15;;;;;;;20.30;10.80;;;;;;;;;;5036684;28;20521;-75
2022/11/19 02:17:46;;;;;;;26.13;11.07;;;;;;;;;;5035943;28;20026;-76
2022/11/19 02:20:28;;;;;;;17.75;10.10;;;;;;;;;;5035872;28;20026;-75
2022/11/19 02:23:17;;;;;;;20.30;11.15;;;;;;;;;;5037601;28;20025;-76
2022/11/19 02:25:55;;;;;;;24.27;11.98;;;;;;;;;;5002032;28;20034;-76
2022/11/19 02:28:43;;;;;;;24.52;10.52;;;;;;;;;;5041288;28;20363;-75
2022/11/19 02:31:29;;;;;;;20.52;10.55;;;;;;;;;;5039980;28;20076;-76
2022/11/19 02:34:01;;;;;;;20.05;10.32;;;;;;;;;;5025901;28;20128;-77
2022/11/19 02:36:41;;;;;;;21.70;10.00;;;;;;;;;;5040508;28;20035;-76
2022/11/19 02:39:07;;;;;;;20.17;10.60;;;;;;;;;;5041336;28;20032;-76
2022/11/19 02:41:36;;;;;;;23.23;11.10;;;;;;;;;;5051106;28;20021;-77
2022/11/19 02:47:09;;;;;;;19.83;10.50;;;;;;;;;;5050661;28;20105;-75
2022/11/19 02:49:37;;;;;;;19.30;10.05;;;;;;;;;;5035451;28;20061;-75
2022/11/19 02:52:03;;;;;;;23.52;10.40;;;;;;;;;;5037260;28;20048;-76
2022/11/19 02:54:30;;;;;;;19.02;10.55;;;;;;;;;;5038839;28;20219;-75
2022/11/19 02:56:59;;;;;;;24.80;11.18;;;;;;;;;;5042693;28;20048;-75
2022/11/19 03:05:10;;;;;;;22.27;9.80;;;;;;;;;;5042499;28;20045;-76
2022/11/19 03:07:36;;;;;;;18.90;10.43;;;;;;;;;;5050226;28;20030;-75
2022/11/19 03:10:04;;;;;;;22.17;10.40;;;;;;;;;;5042618;28;20029;-76
2022/11/19 03:12:37;;;;;;;20.55;9.73;;;;;;;;;;5045128;28;20022;-75
2022/11/19 03:18:00;;;;;;;19.55;10.07;;;;;;;;;;5048405;28;20071;-76
2022/11/19 03:20:31;;;;;;;18.05;9.45;;;;;;;;;;5044220;28;20021;-77
2022/11/19 03:22:58;;;;;;;22.58;9.77;;;;;;;;;;5042031;28;20439;-77
2022/11/19 03:25:32;;;;;;;23.70;10.07;;;;;;;;;;5036473;28;20013;-76
2022/11/19 03:28:01;;;;;;;21.63;10.18;;;;;;;;;;5038099;28;20036;-75
2022/11/19 03:30:29;;;;;;;21.40;10.25;;;;;;;;;;5036613;28;20029;-76
2022/11/19 03:32:59;;;;;;;21.55;10.73;;;;;;;;;;5033541;28;20021;-75
2022/11/19 03:35:27;;;;;;;23.45;10.50;;;;;;;;;;5034270;28;20112;-77
2022/11/19 03:37:55;;;;;;;22.27;10.15;;;;;;;;;;5034042;28;20033;-76
2022/11/19 03:40:22;;;;;;;23.48;10.55;;;;;;;;;;5034045;28;20030;-76
2022/11/19 03:42:50;;;;;;;18.48;9.80;;;;;;;;;;5033937;28;20060;-76
2022/11/19 03:45:19;;;;;;;19.35;9.40;;;;;;;;;;5033433;28;20028;-76
2022/11/19 03:47:47;;;;;;;21.30;9.60;;;;;;;;;;5036506;28;20060;-78
2022/11/19 03:50:28;;;;;;;20.05;10.05;;;;;;;;;;5035311;28;20032;-76
2022/11/19 03:52:55;;;;;;;19.48;10.13;;;;;;;;;;5032615;28;20119;-77
2022/11/19 03:55:25;;;;;;;21.17;10.05;;;;;;;;;;5036729;28;20028;-77
2022/11/19 03:57:51;;;;;;;17.42;9.55;;;;;;;;;;5036776;28;20451;-77
2022/11/19 04:00:17;;;;;;;18.05;9.38;;;;;;;;;;5035672;28;20017;-77
2022/11/19 04:02:43;;;;;;;22.70;10.93;;;;;;;;;;5033517;28;20021;-77
2022/11/19 04:05:09;;;;;;;21.02;10.10;;;;;;;;;;5034237;28;20112;-78
2022/11/19 04:07:35;;;;;;;26.30;12.10;;;;;;;;;;5033939;28;20030;-77
2022/11/19 04:10:01;;;;;;;21.73;10.48;;;;;;;;;;5035642;28;20129;-76
2022/11/19 04:12:27;;;;;;;17.55;9.88;;;;;;;;;;5039342;28;20117;-78
2022/11/19 04:14:53;;;;;;;21.20;10.18;;;;;;;;;;5040239;28;20045;-76
2022/11/19 04:17:19;;;;;;;21.73;10.70;;;;;;;;;;5043433;28;20382;-76
2022/11/19 04:19:45;;;;;;;19.05;10.48;;;;;;;;;;5033767;28;20209;-78
2022/11/19 04:22:11;;;;;;;20.48;10.07;;;;;;;;;;5034214;28;20036;-75
2022/11/19 04:24:37;;;;;;;20.70;9.70;;;;;;;;;;5033700;28;20429;-76
2022/11/19 04:27:03;;;;;;;19.63;9.98;;;;;;;;;;5032670;28;20037;-76
2022/11/19 04:29:29;;;;;;;20.25;9.82;;;;;;;;;;5032296;28;20091;-76
2022/11/19 04:31:55;;;;;;;18.05;9.55;;;;;;;;;;5032467;28;20037;-77
2022/11/19 04:34:21;;;;;;;21.13;10.65;;;;;;;;;;5032600;28;20112;-77
2022/11/19 04:36:47;;;;;;;23.17;12.30;;;;;;;;;;5032208;28;20140;-76
2022/11/19 04:39:13;;;;;;;23.67;12.20;;;;;;;;;;5031903;28;20025;-75
2022/11/19 04:41:39;;;;;;;27.83;12.90;;;;;;;;;;5030717;28;20036;-75
2022/11/19 04:44:06;;;;;;;22.77;11.63;;;;;;;;;;5031972;28;20109;-75
2022/11/19 04:46:32;;;;;;;23.38;11.02;;;;;;;;;;5032161;28;20029;-75
2022/11/19 04:48:58;;;;;;;23.92;11.52;;;;;;;;;;5032487;28;20826;-76
2022/11/19 04:51:24;;;;;;;29.27;13.75;;;;;;;;;;5033119;28;20032;-77
2022/11/19 04:53:50;;;;;;;30.05;14.20;;;;;;;;;;5033586;28;20502;-76
2022/11/19 04:56:16;;;;;;;22.27;12.95;;;;;;;;;;5034241;28;20025;-77
2022/11/19 04:58:42;;;;;;;22.95;12.40;;;;;;;;;;5038481;28;20052;-78
2022/11/19 05:01:08;;;;;;;21.35;10.60;;;;;;;;;;5033510;28;20158;-76
2022/11/19 05:03:34;;;;;;;20.85;9.85;;;;;;;;;;5032798;28;20048;-76
2022/11/19 05:06:00;;;;;;;20.45;10.27;;;;;;;;;;5032286;28;20045;-77
2022/11/19 05:08:26;;;;;;;21.60;10.32;;;;;;;;;;5032453;28;20068;-76
2022/11/19 05:10:52;;;;;;;20.70;10.68;;;;;;;;;;5032637;28;20041;-77
2022/11/19 05:13:18;;;;;;;26.23;11.45;;;;;;;;;;5036417;28;20398;-77
2022/11/19 05:15:44;;;;;;;21.42;11.52;;;;;;;;;;5039795;28;20051;-75
2022/11/19 05:18:10;;;;;;;19.33;10.40;;;;;;;;;;5041206;28;20077;-74
2022/11/19 05:20:36;;;;;;;16.42;9.70;;;;;;;;;;5037960;28;20025;-75
2022/11/19 05:23:02;;;;;;;19.38;10.43;;;;;;;;;;5037816;28;20029;-74
2022/11/19 05:25:28;;;;;;;19.10;9.93;;;;;;;;;;5036773;28;20028;-75
2022/11/19 05:27:54;;;;;;;21.02;10.13;;;;;;;;;;5037709;28;20041;-74
2022/11/19 05:30:20;;;;;;;19.70;10.48;;;;;;;;;;5040388;28;20033;-75
2022/11/19 05:32:46;;;;;;;17.77;9.30;;;;;;;;;;5040159;28;20076;-76
2022/11/19 05:35:12;;;;;;;20.90;10.20;;;;;;;;;;5037951;28;20030;-76
2022/11/19 05:37:38;;;;;;;18.13;9.50;;;;;;;;;;5035519;28;20040;-75
2022/11/19 05:40:04;;;;;;;18.83;10.48;;;;;;;;;;5035877;28;20029;-76
2022/11/19 05:42:30;;;;;;;22.25;10.85;;;;;;;;;;5042789;28;20034;-76
2022/11/19 05:44:56;;;;;;;20.45;10.07;;;;;;;;;;5043944;28;20121;-76
2022/11/19 05:47:22;;;;;;;15.55;8.90;;;;;;;;;;5041436;28;20034;-76
2022/11/19 05:49:48;;;;;;;18.90;10.55;;;;;;;;;;5042464;28;20120;-75
2022/11/19 05:52:14;;;;;;;18.58;10.35;;;;;;;;;;5039306;28;20029;-75
2022/11/19 05:54:40;;;;;;;18.20;9.15;;;;;;;;;;5036080;28;20025;-76
2022/11/19 05:57:06;;;;;;;17.75;9.70;;;;;;;;;;5037999;28;20057;-77
2022/11/19 05:59:32;;;;;;;20.20;9.82;;;;;;;;;;5035453;28;20029;-76
2022/11/19 06:01:58;;;;;;;21.45;10.65;;;;;;;;;;5035170;28;20052;-76
2022/11/19 06:04:24;;;;;;;20.05;10.35;;;;;;;;;;5035124;28;20077;-76
2022/11/19 06:06:50;;;;;;;17.60;10.98;;;;;;;;;;5035339;28;20115;-76
2022/11/19 06:09:16;;;;;;;19.48;11.73;;;;;;;;;;5035986;28;20046;-77
2022/11/19 06:11:49;;;;;;;20.42;10.95;;;;;;;;;;5035491;28;20057;-75
2022/11/19 06:14:15;;;;;;;19.50;10.18;;;;;;;;;;5036002;28;20502;-75
2022/11/19 06:16:42;;;;;;;22.08;11.32;;;;;;;;;;5035550;28;20026;-77
2022/11/19 06:19:08;;;;;;;18.50;10.77;;;;;;;;;;5033956;28;20033;-76
2022/11/19 06:21:34;;;;;;;20.35;10.30;;;;;;;;;;5035861;28;20466;-76
2022/11/19 06:24:00;;;;;;;16.75;9.05;;;;;;;;;;5036330;28;20052;-75
2022/11/19 06:26:27;;;;;;;26.77;10.77;;;;;;;;;;5035550;28;20685;-76
2022/11/19 06:28:54;;;;;;;18.13;10.40;;;;;;;;;;5036139;28;20017;-75
2022/11/19 06:31:20;;;;;;;20.40;9.93;;;;;;;;;;5033371;28;20072;-76
2022/11/19 06:33:46;;;;;;;19.90;10.90;;;;;;;;;;5042060;28;20045;-74
2022/11/19 06:36:12;;;;;;;21.80;11.05;;;;;;;;;;5047609;28;20030;-76
2022/11/19 06:38:38;;;;;;;17.45;9.55;;;;;;;;;;5034842;28;20538;-75
2022/11/19 06:41:04;;;;;;;16.60;9.30;;;;;;;;;;5034511;28;20100;-82
2022/11/19 06:43:30;;;;;;;21.27;10.55;;;;;;;;;;5033747;28;20025;-77
2022/11/19 06:45:56;;;;;;;16.02;9.80;;;;;;;;;;5033939;28;20363;-77
2022/11/19 06:48:22;;;;;;;20.80;10.52;;;;;;;;;;5034661;28;20096;-77
2022/11/19 06:50:48;;;;;;;16.75;9.77;;;;;;;;;;5034644;28;20109;-78
2022/11/19 06:53:14;;;;;;;21.95;11.50;;;;;;;;;;5035102;28;20061;-77
2022/11/19 06:55:40;;;;;;;24.73;11.63;;;;;;;;;;5035048;28;20026;-77
2022/11/19 06:58:06;;;;;;;24.88;11.52;;;;;;;;;;5035106;28;20498;-76
2022/11/19 07:00:33;;;;;;;21.98;11.10;;;;;;;;;;5035586;28;20104;-77
2022/11/19 07:02:59;;;;;;;23.67;11.52;;;;;;;;;;5035831;28;20026;-77
2022/11/19 07:05:25;;;;;;;27.20;12.40;;;;;;;;;;5036317;28;20112;-77
2022/11/19 07:07:51;;;;;;;20.02;11.40;;;;;;;;;;5040403;28;20116;-79
2022/11/19 07:10:17;;;;;;;20.35;11.50;;;;;;;;;;5037370;28;20029;-78
2022/11/19 07:12:43;;;;;;;19.55;11.15;;;;;;;;;;5036530;28;20033;-80
2022/11/19 07:15:09;;;;;;;20.88;11.30;;;;;;;;;;5036529;28;20103;-77
2022/11/19 07:17:36;;;;;;;20.50;12.07;;;;;;;;;;5046310;28;20029;-76
2022/11/19 07:20:02;;;;;;;21.10;11.43;;;;;;;;;;5050801;28;20040;-76
2022/11/19 07:22:28;;;;;;;21.98;11.02;;;;;;;;;;5047948;28;20399;-76
2022/11/19 07:24:54;;;;;;;20.65;11.63;;;;;;;;;;5036451;28;20037;-75
2022/11/19 07:27:20;;;;;;;23.80;12.95;;;;;;;;;;5033280;28;20087;-75
2022/11/19 07:29:46;;;;;;;28.00;13.25;;;;;;;;;;5035568;28;20148;-77
2022/11/19 07:32:12;;;;;;;25.80;12.77;;;;;;;;;;5035575;28;20045;-78
2022/11/19 07:34:38;;;;;;;27.83;13.30;;;;;;;;;;5035628;28;20730;-76
2022/11/19 07:37:04;;;;;;;29.30;13.80;;;;;;;;;;5034880;28;20396;-77
2022/11/19 07:39:30;;;;;;;24.60;13.02;;;;;;;;;;5040339;28;20157;-76
2022/11/19 07:44:40;;;;;;;24.08;14.43;;;;;;;;;;5044857;28;20093;-78
2022/11/19 07:47:07;;;;;;;30.17;15.48;;;;;;;;;;5038464;28;20053;-76
2022/11/19 07:49:33;;;;;;;27.70;15.52;;;;;;;;;;5038811;28;20401;-78
2022/11/19 07:51:58;;;;;;;31.40;17.02;;;;;;;;;;5037971;28;20041;-78
2022/11/19 07:54:24;;;;;;;32.67;14.95;;;;;;;;;;5039451;28;20033;-75
2022/11/19 07:56:50;;;;;;;32.67;13.85;;;;;;;;;;5039372;28;20044;-77
2022/11/19 07:59:17;;;;;;;28.83;12.57;;;;;;;;;;5039827;28;20036;-78
2022/11/19 08:01:43;;;;;;;20.55;11.55;;;;;;;;;;5038185;28;20018;-77
2022/11/19 08:04:09;;;;;;;21.67;11.93;;;;;;;;;;5035788;28;20029;-77
2022/11/19 08:06:35;;;;;;;22.92;12.20;;;;;;;;;;5034415;28;20053;-76
2022/11/19 08:09:02;;;;;;;23.50;12.15;;;;;;;;;;5038673;28;20040;-77
2022/11/19 08:11:28;;;;;;;22.90;12.40;;;;;;;;;;5043075;28;20026;-77
2022/11/19 08:13:54;;;;;;;24.30;12.60;;;;;;;;;;5033347;28;20356;-76
2022/11/19 08:19:09;;;;;;;24.05;12.23;;;;;;;;;;5050016;28;20036;-75
2022/11/19 08:21:35;;;;;;;21.23;11.85;;;;;;;;;;5035309;28;20036;-77
2022/11/19 08:24:01;;;;;;;21.88;11.93;;;;;;;;;;5034649;28;20021;-77
2022/11/19 08:26:27;;;;;;;25.08;11.27;;;;;;;;;;5033403;28;20021;-77
2022/11/19 08:28:53;;;;;;;18.75;10.00;;;;;;;;;;5034661;28;20536;-77
2022/11/19 08:31:19;;;;;;;19.08;10.73;;;;;;;;;;5034418;28;20084;-78
2022/11/19 08:33:45;;;;;;;22.15;10.13;;;;;;;;;;5032517;28;20022;-75
2022/11/19 08:36:11;;;;;;;19.00;10.23;;;;;;;;;;5032118;28;20029;-73
2022/11/19 08:38:37;;;;;;;14.95;8.70;;;;;;;;;;5033913;28;20048;-77
2022/11/19 08:43:47;;;;;;;14.25;8.32;;;;;;;;;;5034005;28;20160;-78
2022/11/19 08:46:13;;;;;;;16.15;8.20;;;;;;;;;;5033777;28;20514;-76
2022/11/19 08:48:39;;;;;;;13.27;7.78;;;;;;;;;;5033214;28;20386;-77
2022/11/19 08:51:06;;;;;;;12.88;8.15;;;;;;;;;;5033546;28;20528;-75
2022/11/19 08:53:32;;;;;;;12.73;7.07;;;;;;;;;;5033554;28;20098;-77
2022/11/19 08:55:59;;;;;;;12.68;7.10;;;;;;;;;;5036346;28;20029;-76
2022/11/19 08:58:25;;;;;;;17.95;8.23;;;;;;;;;;5035377;28;20071;-76
2022/11/19 09:00:51;;;;;;;53.47;19.90;;;;;;;;;;5053654;28;20025;-76
2022/11/19 09:03:17;;;;;;;12.70;7.70;;;;;;;;;;5055553;28;20040;-77
2022/11/19 09:05:43;;;;;;;20.05;7.95;;;;;;;;;;5055319;28;20089;-79
2022/11/19 09:08:09;;;;;;;18.27;7.40;;;;;;;;;;5055001;28;20033;-79
2022/11/19 09:10:36;;;;;;;17.00;7.40;;;;;;;;;;5048068;28;20046;-76
2022/11/19 09:13:03;;;;;;;12.57;6.55;;;;;;;;;;5034675;28;20052;-76
2022/11/19 09:15:29;;;;;;;10.00;6.28;;;;;;;;;;5034557;28;20104;-77
2022/11/19 09:17:55;;;;;;;10.25;5.80;;;;;;;;;;5038897;28;20130;-76
2022/11/19 09:20:20;;;;;;;9.15;5.95;;;;;;;;;;5040246;28;20032;-76
2022/11/19 09:22:46;;;;;;;42.45;22.98;;;;;;;;;;5037688;28;20026;-76
2022/11/19 09:25:13;;;;;;;10.93;6.55;;;;;;;;;;5033778;28;20033;-76
2022/11/19 09:27:38;;;;;;;11.93;6.50;;;;;;;;;;5033732;28;20391;-76
2022/11/19 09:30:05;;;;;;;11.80;6.40;;;;;;;;;;5034239;28;20032;-75
2022/11/19 09:32:32;;;;;;;16.13;8.70;;;;;;;;;;5037375;28;20030;-77
2022/11/19 09:34:58;;;;;;;9.80;6.30;;;;;;;;;;5041561;28;20029;-77
2022/11/19 09:37:24;;;;;;;10.73;6.57;;;;;;;;;;5041283;28;20033;-77
2022/11/19 09:39:50;;;;;;;24.33;10.80;;;;;;;;;;5038537;28;20022;-76
2022/11/19 09:42:16;;;;;;;10.50;6.03;;;;;;;;;;5036915;28;20467;-79
2022/11/19 09:45:15;;;;;;;11.15;6.03;;;;;;;;;;5040545;28;20079;-79
2022/11/19 09:48:00;;;;;;;12.98;6.05;;;;;;;;;;5021204;28;20029;-79
2022/11/19 09:50:29;;;;;;;9.68;5.63;;;;;;;;;;5038144;28;20091;-77
2022/11/19 09:53:01;;;;;;;9.05;5.78;;;;;;;;;;5033960;28;20434;-80
2022/11/19 09:55:40;;;;;;;10.05;5.82;;;;;;;;;;5034009;28;20391;-77
2022/11/19 09:58:11;;;;;;;16.48;6.55;;;;;;;;;;5043025;28;20033;-77
2022/11/19 10:00:37;;;;;;;10.38;5.93;;;;;;;;;;5052611;28;20036;-77
2022/11/19 10:03:10;;;;;;;14.02;7.00;;;;;;;;;;5054518;28;20029;-77
2022/11/19 10:05:44;;;;;;;10.77;6.40;;;;;;;;;;5055666;28;20017;-78
2022/11/19 10:08:29;;;;;;;18.20;8.60;;;;;;;;;;5050048;28;20474;-78
2022/11/19 10:10:55;;;;;;;;;;;;;;;;;;5033453;28;20037;-77
2022/11/19 10:13:27;;;;;;;47.40;16.88;;;;;;;;;;5033444;28;19951;-78
2022/11/19 10:16:12;;;;;;;13.70;7.30;;;;;;;;;;5032524;28;20463;-77
2022/11/19 10:18:42;;;;;;;11.60;7.10;;;;;;;;;;5036908;28;20034;-76
2022/11/19 10:21:38;;;;;;;12.63;7.13;;;;;;;;;;5037340;28;20105;-79
2022/11/19 10:24:09;;;;;;;11.57;6.30;;;;;;;;;;5028793;28;20037;-77
2022/11/19 10:26:37;;;;;;;11.55;6.00;;;;;;;;;;5035883;28;20036;-77
2022/11/19 10:29:10;;;;;;;12.15;5.78;;;;;;;;;;5037122;28;20104;-77
2022/11/19 10:31:38;;;;;;;9.65;5.15;;;;;;;;;;5036760;28;20025;-77
2022/11/19 10:34:07;;;;;;;11.50;5.80;;;;;;;;;;5037990;28;20542;-77
2022/11/19 10:36:40;;;;;;;9.90;5.45;;;;;;;;;;5035617;28;20033;-76
2022/11/19 10:39:06;;;;;;;9.10;4.85;;;;;;;;;;5037320;28;20029;-77
2022/11/19 10:41:44;;;;;;;9.40;5.05;;;;;;;;;;5037670;28;20540;-78
2022/11/19 10:44:36;;;;;;;10.23;4.70;;;;;;;;;;5038084;28;20032;-83
2022/11/19 10:47:03;;;;;;;8.30;4.65;;;;;;;;;;5036741;28;20112;-78
2022/11/19 10:49:29;;;;;;;9.63;4.70;;;;;;;;;;5037070;28;20371;-76
2022/11/19 10:51:55;;;;;;;7.70;4.50;;;;;;;;;;5037640;28;20037;-77
2022/11/19 10:54:23;;;;;;;7.32;4.15;;;;;;;;;;5036862;28;20517;-77
2022/11/19 10:56:50;;;;;;;7.30;4.15;;;;;;;;;;5036591;28;20108;-77
2022/11/19 10:59:18;;;;;;;12.27;5.15;;;;;;;;;;5037406;28;20026;-78
2022/11/19 11:01:46;;;;;;;15.98;5.85;;;;;;;;;;5036759;28;20538;-78
2022/11/19 11:04:12;;;;;;;11.35;5.55;;;;;;;;;;5037504;28;20039;-79
2022/11/19 11:06:53;;;;;;;7.63;4.40;;;;;;;;;;5036914;28;20041;-78
2022/11/19 11:09:39;;;;;;;9.77;4.63;;;;;;;;;;5035415;28;20044;-78
2022/11/19 11:14:59;;;;;;;8.52;4.15;;;;;;;;;;5038235;28;20159;-77
2022/11/19 11:17:26;;;;;;;8.38;3.83;;;;;;;;;;5038385;28;20025;-77
2022/11/19 11:20:04;;;;;;;8.32;3.25;;;;;;;;;;5046673;28;20021;-78
2022/11/19 11:22:30;;;;;;;6.53;3.40;;;;;;;;;;5052266;28;20018;-78
2022/11/19 11:24:57;;;;;;;7.50;3.63;;;;;;;;;;5049425;28;20032;-78
2022/11/19 11:27:33;;;;;;;9.88;4.07;;;;;;;;;;5037204;28;20036;-78
2022/11/19 11:30:06;;;;;;;17.23;7.35;;;;;;;;;;5036063;28;20513;-77
2022/11/19 11:32:32;;;;;;;6.57;3.50;;;;;;;;;;5036325;28;20119;-79
2022/11/19 11:34:58;;;;;;;7.13;3.80;;;;;;;;;;5036542;28;20088;-77
2022/11/19 11:37:26;;;;;;;38.58;18.70;;;;;;;;;;5035430;28;20021;-79
2022/11/19 11:39:55;;;;;;;7.90;4.20;;;;;;;;;;5037384;28;20025;-78
2022/11/19 11:42:23;;;;;;;8.63;3.60;;;;;;;;;;5037987;28;20400;-78
2022/11/19 11:44:53;;;;;;;6.90;3.47;;;;;;;;;;5038071;28;20032;-78
2022/11/19 11:47:21;;;;;;;5.88;2.97;;;;;;;;;;5040279;28;20128;-79
2022/11/19 11:49:55;;;;;;;7.13;3.78;;;;;;;;;;5053654;28;20044;-78
2022/11/19 11:52:40;;;;;;;6.38;3.50;;;;;;;;;;5054683;28;20026;-79
2022/11/19 11:55:12;;;;;;;6.00;3.00;;;;;;;;;;5052872;28;20026;-77
2022/11/19 11:57:50;;;;;;;7.00;3.40;;;;;;;;;;5039904;28;20196;-78
2022/11/19 12:00:31;;;;;;;5.10;2.65;;;;;;;;;;5037635;28;20052;-79
2022/11/19 12:03:02;;;;;;;7.90;2.88;;;;;;;;;;5036063;28;20075;-78
2022/11/19 12:05:31;;;;;;;14.77;6.18;;;;;;;;;;5036223;28;20406;-79
2022/11/19 12:08:00;;;;;;;4.47;2.50;;;;;;;;;;5037261;28;20029;-79
2022/11/19 12:10:26;;;;;;;9.63;4.53;;;;;;;;;;5037683;28;20040;-80
2022/11/19 12:12:58;;;;;;;7.72;3.47;;;;;;;;;;5041162;28;20394;-78
2022/11/19 12:15:33;;;;;;;5.45;1.92;;;;;;;;;;5042277;28;20029;-81
2022/11/19 12:18:07;;;;;;;9.50;3.40;;;;;;;;;;5046436;28;20033;-78
2022/11/19 12:20:43;;;;;;;4.65;2.00;;;;;;;;;;5054044;28;20022;-78
2022/11/19 12:23:28;;;;;;;6.72;2.40;;;;;;;;;;5052839;28;20009;-79
2022/11/19 12:25:54;;;;;;;6.25;2.83;;;;;;;;;;5050314;28;20044;-78
2022/11/19 12:28:29;;;;;;;5.50;2.40;;;;;;;;;;5042883;28;20092;-78
2022/11/19 12:31:03;;;;;;;5.18;2.30;;;;;;;;;;5044955;28;20029;-78
2022/11/19 12:33:38;;;;;;;4.45;2.00;;;;;;;;;;5040816;28;20101;-79
2022/11/19 12:36:21;;;;;;;5.95;2.78;;;;;;;;;;5041449;28;20029;-79
2022/11/19 12:39:02;;;;;;;6.05;1.92;;;;;;;;;;5038243;28;20407;-78
2022/11/19 12:41:34;;;;;;;5.35;2.00;;;;;;;;;;5040256;28;20025;-78
2022/11/19 12:44:01;;;;;;;6.10;2.63;;;;;;;;;;5042400;28;20026;-78
2022/11/19 12:46:38;;;;;;;7.32;3.05;;;;;;;;;;5041433;28;20029;-79
2022/11/19 12:49:19;;;;;;;6.45;3.22;;;;;;;;;;5040865;28;20069;-78
2022/11/19 12:51:45;;;;;;;14.30;6.75;;;;;;;;;;5039418;28;20037;-78
2022/11/19 12:54:18;;;;;;;14.07;3.30;;;;;;;;;;5035266;28;20047;-77
2022/11/19 12:56:50;;;;;;;5.13;2.10;;;;;;;;;;5035487;28;20034;-77
2022/11/19 12:59:17;;;;;;;4.65;2.13;;;;;;;;;;5036482;28;20124;-78
2022/11/19 13:01:44;;;;;;;5.53;2.10;;;;;;;;;;5037030;28;20060;-79
2022/11/19 13:04:10;;;;;;;4.50;1.75;;;;;;;;;;5039559;28;20447;-78
2022/11/19 13:06:52;;;;;;;4.20;1.80;;;;;;;;;;5036348;28;20076;-78
2022/11/19 13:09:22;;;;;;;3.88;1.95;;;;;;;;;;5048509;23;20609;-73
2022/11/19 13:11:53;;;;;;;4.75;2.38;;;;;;;;;;5036828;28;20049;-72
2022/11/19 13:14:33;;;;;;;6.00;3.00;;;;;;;;;;5038070;28;20056;-72
2022/11/19 13:17:00;;;;;;;5.13;2.22;;;;;;;;;;5034798;28;20091;-74
2022/11/19 13:19:31;;;;;;;4.65;2.65;;;;;;;;;;5035444;28;20047;-73
2022/11/19 13:22:17;;;;;;;3.55;2.30;;;;;;;;;;5034700;28;20407;-75
2022/11/19 13:24:46;;;;;;;6.43;2.40;;;;;;;;;;5033207;28;20021;-74
2022/11/19 13:27:15;;;;;;;4.15;2.03;;;;;;;;;;5032895;28;20467;-73
2022/11/19 13:29:47;;;;;;;8.10;2.50;;;;;;;;;;5032878;28;20053;-72
2022/11/19 13:32:13;;;;;;;6.32;2.33;;;;;;;;;;5033596;28;20032;-72
2022/11/19 13:34:48;;;;;;;5.88;2.67;;;;;;;;;;5033471;28;20033;-73
2022/11/19 13:37:17;;;;;;;4.90;2.42;;;;;;;;;;5032664;28;20175;-71
2022/11/19 13:39:47;;;;;;;9.07;4.20;;;;;;;;;;5031463;28;20117;-73
2022/11/19 13:44:59;;;;;;;15.45;5.68;;;;;;;;;;5033596;28;20107;-73
2022/11/19 13:47:26;;;;;;;6.28;2.30;;;;;;;;;;5033091;28;20029;-73
2022/11/19 13:49:57;;;;;;;3.67;1.75;;;;;;;;;;5035131;28;20505;-72
2022/11/19 13:52:32;;;;;;;11.55;3.33;;;;;;;;;;5038661;28;20482;-72
2022/11/19 13:54:58;;;;;;;;;;;;;;;;;;5039189;28;20087;-73
2022/11/19 13:57:26;;;;;;;4.70;2.00;;;;;;;;;;5037639;28;19913;-74
2022/11/19 13:59:56;;;;;;;5.80;3.03;;;;;;;;;;5036803;28;20097;-73
2022/11/19 14:02:34;;;;;;;4.45;2.17;;;;;;;;;;5037358;28;20026;-72
2022/11/19 14:05:00;;;;;;;3.45;2.10;;;;;;;;;;5038287;28;20079;-73
2022/11/19 14:07:45;;;;;;;8.07;2.50;;;;;;;;;;5038363;28;20029;-73
2022/11/19 14:10:13;;;;;;;6.70;2.80;;;;;;;;;;5037394;28;20033;-73
2022/11/19 14:12:47;;;;;;;5.30;2.00;;;;;;;;;;5036707;28;20433;-72
2022/11/19 14:27:25;;;;;;;12.02;2.80;;;;;;;;;;5016662;28;20145;-74
2022/11/19 14:29:56;;;;;;;8.05;2.97;;;;;;;;;;5016860;28;20033;-72
2022/11/19 14:32:33;;;;;;;8.27;2.53;;;;;;;;;;5016494;28;20026;-72
2022/11/19 14:35:02;;;;;;;5.45;2.45;;;;;;;;;;5016845;28;20022;-72
2022/11/19 14:37:39;;;;;;;9.20;3.08;;;;;;;;;;5015968;28;20018;-72
2022/11/19 14:40:11;;;;;;;8.68;3.35;;;;;;;;;;5016302;28;20022;-73
2022/11/19 14:46:03;;;;;;;7.47;2.33;;;;;;;;;;5024463;28;20156;-72
2022/11/19 14:48:48;;;;;;;7.10;2.70;;;;;;;;;;5029158;28;20030;-72
2022/11/19 14:51:15;;;;;;;10.50;3.78;;;;;;;;;;5035792;28;20089;-72
2022/11/19 14:53:52;;;;;;;7.38;3.00;;;;;;;;;;5037770;28;20066;-72
2022/11/19 14:56:20;;;;;;;8.35;3.15;;;;;;;;;;5034518;28;20030;-74
2022/11/19 14:59:09;;;;;;;6.45;2.80;;;;;;;;;;5020065;28;20076;-73
2022/11/19 15:01:47;;;;;;;5.40;2.78;;;;;;;;;;5008624;28;20120;-72
2022/11/19 15:04:14;;;;;;;7.68;2.97;;;;;;;;;;5016282;28;20418;-72
2022/11/19 15:06:44;;;;;;;9.95;3.10;;;;;;;;;;5016687;28;20478;-71
2022/11/19 15:09:10;;;;;;;9.18;2.90;;;;;;;;;;5018029;28;20471;-72
2022/11/19 15:11:56;;;;;;;6.93;3.10;;;;;;;;;;5016277;28;20124;-73
2022/11/19 15:14:27;;;;;;;5.43;2.97;;;;;;;;;;5015770;28;20485;-72
2022/11/19 15:16:54;;;;;;;7.32;2.83;;;;;;;;;;5015509;28;20032;-72
2022/11/19 15:19:32;;;;;;;10.70;3.75;;;;;;;;;;5016225;28;20033;-71
2022/11/19 15:22:14;;;;;;;6.47;3.40;;;;;;;;;;5016797;28;20549;-72
2022/11/19 15:24:48;;;;;;;13.70;4.47;;;;;;;;;;5024733;28;20063;-73
2022/11/19 15:27:29;;;;;;;10.40;3.83;;;;;;;;;;5025642;28;20099;-73
2022/11/19 15:29:58;;;;;;;11.52;3.88;;;;;;;;;;5016832;28;20140;-72